Redding, CT (06896)

1:54 AM EST on February 27, 2015 (GMT -0500)
KCTREDDI3 | Change Station
CLOSE
Current Station
Personal Weather Station
Location: Redding, CT
Elevation: 466 ft
Nearby Weather Stations

Elev 466 ft 41.28 °N, 73.39 °W | Updated 5 seconds ago

Partly Cloudy
Partly Cloudy
15.1 °F
Feels Like 15 °F
N
3.0
Wind Variable Wind from NW

Today
High -- | Low -- °F
--% Chance of Precip.
Yesterday
High -- | Low -- °F
Precip. -- in
6:31 AM 5:41 PM
Waxing Gibbous, 66% visible
Pressure 30.18 in
Visibility 10.0 miles
Clouds Clear
Windchill 15 °F
Dew Point 6 °F
Humidity 68%
Rainfall 0.00 in
Snow Depth Not available.
UV 0 out of 12
Pollen .40 out of 12
Air Quality Not available.
Flu Activity Not available.
METAR KDXR 270553Z AUTO 21003KT 10SM CLR M13/M18 A3015 RMK AO2 SLP219 T11281178 11067 21128 51014

More Conditions Fewer Conditions

Pressure 30.18 in
Visibility 10.0 miles
Clouds Clear
Windchill 15 °F
Dew Point 6 °F
Humidity 68%
Rainfall 0.00 in
Snow Depth Not available.
UV 0 out of 12
Pollen .40 out of 12
Air Quality Not available.
Flu Activity Not available.
METAR KDXR 270553Z AUTO 21003KT 10SM CLR M13/M18 A3015 RMK AO2 SLP219 T11281178 11067 21128 51014

More Conditions Fewer Conditions

10-Day Weather Forecast

Almanac

Astronomy

Feb. 27, 2015 Rise Set
Actual Time
Civil Twilight
Nautical Twilight
Astronomical Twilight
Moon
Length of Visible Light
Length of Day
Tomorrow will be .
, % of the Moon is Illuminated

Today's Extremes

State Highs State Lows

Community

WunderPhotos

Upload Photos

1,800,646 photos uploaded!

WunderBlogs® & News

Nearby

Air Quality

  Air Quality AQ Index Pollutant
Not available.

Snow Depth

Station Depth Elevation

Earthquake Activity

City Distance Mag. Time & Date
Minimum magnitude displayed is 2.5.

Coastal Water Temperatures

Place Temperature

Nearby Weather Stations